Time;durP1;ratioP1;P1;durP2;ratioP2;P2;SDS_P1;SDS_P2;PMS_P1;PMS_P2;Temp;Humidity;BMP_temperature;BMP_pressure;BME280_temperature;BME280_humidity;BME280_pressure;Samples;Min_cycle;Max_cycle;Signal;HPM_P1;HPM_P2
2021/07/28 00:01:26;;;;;;;12.30;11.10;;;;;;;21.69;64.79;97320.25;5004275;28;20053;-59
2021/07/28 00:03:53;;;;;;;11.75;10.63;;;;;;;21.66;64.67;97292.94;5005786;28;20068;-59
2021/07/28 00:06:28;;;;;;;14.45;11.07;;;;;;;21.56;65.33;97316.50;5004438;28;20167;-60
2021/07/28 00:08:55;;;;;;;13.35;11.05;;;;;;;21.62;65.10;97311.97;5005783;28;20556;-61
2021/07/28 00:11:22;;;;;;;12.38;11.10;;;;;;;21.30;65.29;97269.56;5004360;28;20906;-59
2021/07/28 00:13:49;;;;;;;11.38;10.20;;;;;;;21.46;65.76;97300.63;5004615;28;20053;-59
2021/07/28 00:16:16;;;;;;;12.55;10.75;;;;;;;21.16;65.38;97241.69;5003905;28;20053;-62
2021/07/28 00:24:10;;;;;;;13.98;10.45;;;;;;;21.22;65.06;97244.78;5005822;28;20060;-59
2021/07/28 00:26:38;;;;;;;10.88;9.13;;;;;;;21.58;65.23;97308.41;5003707;28;20049;-58
2021/07/28 00:29:05;;;;;;;11.43;8.85;;;;;;;21.40;64.99;97279.81;5005444;28;20049;-60
2021/07/28 00:31:31;;;;;;;12.55;9.95;;;;;;;21.55;65.03;97303.66;5004023;28;20057;-62
2021/07/28 00:33:58;;;;;;;12.00;9.25;;;;;;;21.23;65.27;97257.66;5004170;28;20152;-59
2021/07/28 00:36:25;;;;;;;11.52;10.10;;;;;;;21.09;65.33;97253.09;5003407;28;20141;-59
2021/07/28 00:38:52;;;;;;;10.32;9.23;;;;;;;21.18;64.64;97235.63;5003663;28;20860;-59
2021/07/28 00:41:19;;;;;;;16.92;10.35;;;;;;;21.57;65.09;97306.03;5003480;28;20493;-59
2021/07/28 00:43:45;;;;;;;14.80;11.10;;;;;;;21.18;65.98;97258.97;5003708;28;20064;-59
2021/07/28 00:46:12;;;;;;;11.02;9.75;;;;;;;21.38;65.69;97316.09;5003519;28;20065;-58
2021/07/28 00:48:39;;;;;;;11.85;9.98;;;;;;;21.36;65.72;97307.28;5003737;28;20513;-59
2021/07/28 00:51:06;;;;;;;15.38;10.52;;;;;;;21.16;65.42;97261.41;5003668;28;20061;-61
2021/07/28 00:53:33;;;;;;;14.75;13.20;;;;;;;21.31;67.44;97299.34;5003652;28;20149;-59
2021/07/28 00:56:03;;;;;;;18.17;13.52;;;;;;;21.21;67.83;97300.38;5002564;28;20539;-59
2021/07/28 00:58:32;;;;;;;15.00;13.60;;;;;;;21.05;67.84;97274.94;5005262;28;20066;-58
2021/07/28 01:00:59;;;;;;;15.15;13.63;;;;;;;21.11;68.46;97301.38;5003394;28;20057;-59
2021/07/28 01:03:26;;;;;;;17.83;13.80;;;;;;;21.05;69.17;97308.75;5003463;28;20054;-60
2021/07/28 01:05:57;;;;;;;16.33;14.40;;;;;;;20.75;70.57;97300.44;5003441;28;20053;-60
2021/07/28 01:08:24;;;;;;;16.63;13.43;;;;;;;20.76;70.70;97299.22;5005189;28;20056;-58
2021/07/28 01:10:51;;;;;;;28.23;18.20;;;;;;;20.41;71.22;97252.00;5002925;28;20056;-58
2021/07/28 01:13:26;;;;;;;17.58;15.82;;;;;;;20.08;73.96;97312.03;5002167;28;20539;-61
2021/07/28 01:16:19;;;;;;;18.58;16.77;;;;;;;19.86;75.63;97291.09;5002870;28;20054;-60
2021/07/28 01:18:47;;;;;;;18.25;16.35;;;;;;;19.88;74.51;97269.78;5001866;28;20089;-60
2021/07/28 01:21:14;;;;;;;19.92;16.05;;;;;;;20.27;74.14;97291.66;5002344;28;20058;-59
2021/07/28 01:23:42;;;;;;;16.98;15.38;;;;;;;20.47;72.83;97296.13;5002910;28;20060;-58
2021/07/28 01:26:09;;;;;;;16.08;14.23;;;;;;;20.51;71.78;97301.69;5003056;28;20057;-60
2021/07/28 01:28:37;;;;;;;16.33;14.63;;;;;;;20.41;70.98;97257.63;5002709;28;20520;-60
2021/07/28 01:31:15;;;;;;;18.42;13.77;;;;;;;20.72;70.35;97281.59;5004242;28;20056;-58
2021/07/28 01:33:43;;;;;;;14.00;11.77;;;;;;;20.76;69.69;97299.22;5002797;28;20045;-58
2021/07/28 01:36:21;;;;;;;14.35;12.50;;;;;;;20.75;69.61;97289.19;5003764;28;20064;-61
2021/07/28 01:38:49;;;;;;;14.65;11.50;;;;;;;20.83;69.40;97287.81;5002828;28;20068;-59
2021/07/28 01:41:17;;;;;;;14.05;12.65;;;;;;;20.81;69.22;97284.63;5003860;28;20112;-59
2021/07/28 01:43:44;;;;;;;16.88;11.95;;;;;;;20.86;68.47;97289.78;5003231;28;20064;-58
2021/07/28 01:46:12;;;;;;;14.23;11.90;;;;;;;20.87;68.37;97280.09;5002482;28;20050;-61
2021/07/28 01:48:39;;;;;;;15.60;11.20;;;;;;;20.69;69.05;97285.28;5004264;28;20104;-59
2021/07/28 01:51:06;;;;;;;11.20;9.98;;;;;;;20.15;68.91;97180.53;5003506;28;20513;-59
2021/07/28 01:53:33;;;;;;;11.50;10.20;;;;;;;20.52;68.44;97246.97;5003663;28;20049;-63
2021/07/28 01:56:00;;;;;;;13.38;10.73;;;;;;;20.81;68.20;97282.63;5002103;28;20066;-61
2021/07/28 01:58:27;;;;;;;11.27;10.10;;;;;;;20.58;68.75;97271.38;5002696;28;20062;-59
2021/07/28 02:00:54;;;;;;;15.75;10.65;;;;;;;20.71;68.52;97294.06;5002378;28;20530;-59
2021/07/28 02:03:21;;;;;;;11.73;10.63;;;;;;;20.73;68.52;97286.78;5004157;28;20054;-59
2021/07/28 02:05:48;;;;;;;13.40;10.30;;;;;;;20.61;68.00;97255.66;5002174;28;20090;-61
2021/07/28 02:08:16;;;;;;;14.05;10.35;;;;;;;20.53;69.33;97276.72;5003669;28;20062;-57
2021/07/28 02:10:46;;;;;;;16.05;11.00;;;;;;;20.45;69.55;97275.25;5003281;28;20511;-59
2021/07/28 02:13:18;;;;;;;11.77;10.52;;;;;;;20.32;70.08;97248.97;5003515;28;20119;-60
2021/07/28 02:15:46;;;;;;;19.15;12.13;;;;;;;20.45;69.69;97269.63;5001980;28;20578;-58
2021/07/28 02:18:13;;;;;;;13.90;11.32;;;;;;;20.45;69.87;97269.63;5002455;28;20049;-59
2021/07/28 02:20:40;;;;;;;12.88;10.75;;;;;;;20.42;69.71;97276.13;5002135;28;20260;-58
2021/07/28 02:23:07;;;;;;;13.10;10.80;;;;;;;20.43;69.73;97269.25;5002142;28;20120;-60
2021/07/28 02:25:33;;;;;;;14.27;12.13;;;;;;;20.37;69.80;97265.34;5001995;28;20057;-58
2021/07/28 02:28:00;;;;;;;11.48;10.38;;;;;;;19.64;70.09;97152.88;5002177;28;20111;-58
2021/07/28 02:30:27;;;;;;;16.90;11.57;;;;;;;20.22;70.55;97255.56;5003267;28;20066;-58
2021/07/28 02:32:54;;;;;;;14.25;11.23;;;;;;;20.22;70.49;97266.81;5001840;28;20053;-58
2021/07/28 02:35:21;;;;;;;12.73;10.45;;;;;;;20.11;70.42;97266.97;5001729;28;20060;-58
2021/07/28 02:37:48;;;;;;;13.32;12.02;;;;;;;20.11;71.05;97283.03;5002007;28;20062;-58
2021/07/28 02:40:19;;;;;;;17.95;14.93;;;;;;;20.05;72.42;97270.69;5002354;28;20058;-61
2021/07/28 02:42:47;;;;;;;24.40;16.95;;;;;;;19.81;73.82;97260.63;5002090;28;20054;-61
2021/07/28 02:45:14;;;;;;;21.88;17.33;;;;;;;19.79;74.73;97279.97;5003118;28;20053;-58
2021/07/28 02:47:41;;;;;;;19.55;17.67;;;;;;;19.62;74.83;97250.13;5001951;28;20068;-58
2021/07/28 02:50:08;;;;;;;21.40;17.58;;;;;;;19.81;74.93;97269.06;5003800;28;20124;-58
2021/07/28 02:52:35;;;;;;;18.92;16.92;;;;;;;19.42;75.10;97217.06;5001688;28;20460;-57
2021/07/28 02:55:05;;;;;;;20.92;18.70;;;;;;;19.22;75.46;97195.69;5002131;28;20148;-59
2021/07/28 02:57:37;;;;;;;22.33;17.33;;;;;;;19.70;75.63;97268.44;5002356;28;20145;-61
2021/07/28 03:00:05;;;;;;;18.67;16.73;;;;;;;19.41;75.56;97223.91;5002655;28;20053;-58
2021/07/28 03:02:32;;;;;;;20.75;16.48;;;;;;;19.94;73.89;97272.88;5002307;28;20054;-59
2021/07/28 03:04:58;;;;;;;17.85;16.05;;;;;;;19.93;73.92;97279.75;5001868;28;20062;-59
2021/07/28 03:07:25;;;;;;;19.50;16.48;;;;;;;19.76;73.87;97241.47;5001868;28;20057;-59
2021/07/28 03:09:53;;;;;;;18.17;14.45;;;;;;;19.62;73.21;97224.81;5001817;28;20058;-59
2021/07/28 03:12:20;;;;;;;19.58;13.07;;;;;;;19.91;72.65;97276.53;5001367;28;20069;-58
2021/07/28 03:14:46;;;;;;;13.52;12.18;;;;;;;20.08;71.79;97272.66;5003347;28;20062;-60
2021/07/28 03:17:16;;;;;;;13.82;11.52;;;;;;;20.01;71.36;97267.94;5003519;28;20889;-58
2021/07/28 03:19:42;;;;;;;16.83;11.00;;;;;;;19.72;71.62;97226.66;5003896;28;21317;-59
2021/07/28 03:22:09;;;;;;;15.07;11.32;;;;;;;19.98;71.71;97270.81;5005201;28;20056;-59
2021/07/28 03:24:36;;;;;;;14.43;11.18;;;;;;;19.90;71.72;97269.34;5006734;28;20058;-59
2021/07/28 03:27:03;;;;;;;13.10;10.85;;;;;;;19.99;71.33;97275.22;5004877;28;20058;-59
2021/07/28 03:29:30;;;;;;;17.30;10.80;;;;;;;19.51;71.07;97197.66;5006555;28;20507;-60
2021/07/28 03:31:57;;;;;;;13.63;10.50;;;;;;;19.88;70.35;97230.41;5006202;28;20523;-57
2021/07/28 03:34:24;;;;;;;13.65;10.35;;;;;;;20.20;70.65;97274.91;5006625;28;20443;-57
2021/07/28 03:36:52;;;;;;;15.65;10.57;;;;;;;20.11;70.57;97271.78;5006227;28;20080;-57
2021/07/28 03:39:19;;;;;;;11.73;10.10;;;;;;;20.14;70.50;97277.41;5005129;28;20144;-59
2021/07/28 03:41:46;;;;;;;14.48;10.35;;;;;;;20.03;69.87;97237.38;5005843;28;20057;-61
2021/07/28 03:44:13;;;;;;;11.32;10.10;;;;;;;20.24;70.10;97281.25;5004269;28;20213;-57
2021/07/28 03:46:39;;;;;;;16.30;10.07;;;;;;;18.29;70.04;96960.84;5005902;28;20072;-58
2021/07/28 03:49:06;;;;;;;17.70;9.68;;;;;;;20.44;69.34;97268.03;5004625;28;20133;-59
2021/07/28 03:51:33;;;;;;;14.52;10.15;;;;;;;20.16;69.00;97213.06;5004591;28;20058;-58
2021/07/28 03:54:00;;;;;;;10.77;9.68;;;;;;;20.22;68.89;97228.22;5004204;28;20544;-58
2021/07/28 03:56:26;;;;;;;14.45;10.05;;;;;;;20.66;68.19;97266.44;5004282;28;20138;-60
2021/07/28 03:58:54;;;;;;;12.02;9.73;;;;;;;20.81;67.59;97270.56;5004725;28;20073;-59
2021/07/28 04:01:20;;;;;;;13.55;9.93;;;;;;;20.57;67.48;97249.28;5005884;28;20526;-57
2021/07/28 04:03:49;;;;;;;13.23;9.32;;;;;;;20.79;67.57;97284.25;5004757;28;20053;-59
2021/07/28 04:06:16;;;;;;;17.95;10.57;;;;;;;20.69;67.74;97262.75;5003991;28;20136;-58
2021/07/28 04:08:43;;;;;;;18.13;10.85;;;;;;;20.61;67.86;97230.34;5004731;28;20520;-58
2021/07/28 04:11:09;;;;;;;12.02;9.65;;;;;;;20.95;67.08;97253.38;5004112;28;20053;-59
2021/07/28 04:13:36;;;;;;;16.75;10.93;;;;;;;21.13;66.68;97270.75;5005317;28;20115;-59
2021/07/28 04:16:03;;;;;;;16.50;10.15;;;;;;;21.20;66.20;97270.56;5005852;28;20068;-58
2021/07/28 04:18:30;;;;;;;13.88;9.63;;;;;;;21.39;65.35;97272.59;5004632;28;20054;-58
2021/07/28 04:20:57;;;;;;;14.93;10.30;;;;;;;21.20;65.44;97236.75;5003895;28;20058;-58
2021/07/28 04:23:24;;;;;;;13.57;10.25;;;;;;;21.18;65.08;97215.91;5005463;28;20045;-58
2021/07/28 04:25:50;;;;;;;15.45;11.45;;;;;;;21.53;65.21;97263.81;5005366;28;20053;-57
2021/07/28 04:28:17;;;;;;;16.33;11.38;;;;;;;21.44;64.63;97238.25;5005674;28;20445;-60
2021/07/28 04:30:44;;;;;;;14.52;10.63;;;;;;;21.75;64.54;97267.75;5003856;28;20049;-58
2021/07/28 04:33:11;;;;;;;18.75;11.48;;;;;;;21.96;63.65;97264.44;5005718;28;20050;-59
2021/07/28 04:35:37;;;;;;;14.25;11.68;;;;;;;21.89;62.85;97227.94;5005205;28;20638;-61
2021/07/28 04:38:04;;;;;;;15.77;10.25;;;;;;;22.35;62.54;97267.09;5004121;28;20521;-59
2021/07/28 04:40:31;;;;;;;19.27;10.50;;;;;;;22.23;62.33;97281.91;5004906;28;20064;-61
2021/07/28 04:42:57;;;;;;;17.30;9.63;;;;;;;22.30;62.23;97276.06;5005267;28;20053;-58
2021/07/28 04:45:24;;;;;;;23.27;10.48;;;;;;;22.45;61.46;97251.91;5004740;28;20061;-59
2021/07/28 04:47:51;;;;;;;15.77;10.00;;;;;;;22.78;60.39;97277.31;5003679;28;20144;-62
2021/07/28 04:50:18;;;;;;;12.90;9.40;;;;;;;22.96;59.75;97284.03;5004519;28;20050;-59
2021/07/28 04:52:45;;;;;;;70.78;13.57;;;;;;;23.12;59.79;97269.06;5003040;28;20172;-59
2021/07/28 04:55:13;;;;;;;48.42;12.27;;;;;;;23.26;59.53;97274.31;5004982;28;20054;-61
2021/07/28 04:57:40;;;;;;;19.20;10.20;;;;;;;22.90;57.67;97181.28;5005161;28;20148;-58
2021/07/28 05:00:08;;;;;;;23.13;12.95;;;;;;;22.97;63.24;97273.53;5003740;28;20499;-58
2021/07/28 05:02:35;;;;;;;16.73;10.00;;;;;;;23.05;60.53;97224.03;5003299;28;20049;-60
2021/07/28 05:05:03;;;;;;;13.77;9.95;;;;;;;22.61;58.96;97126.84;5003116;28;20054;-59
2021/07/28 05:07:31;;;;;;;13.52;7.95;;;;;;;23.61;57.81;97250.66;5003221;28;20152;-62
2021/07/28 05:09:59;;;;;;;12.95;8.82;;;;;;;23.81;57.62;97259.69;5003601;28;20112;-61
2021/07/28 05:12:26;;;;;;;19.25;9.15;;;;;;;23.96;57.34;97260.84;5003164;28;20065;-63
2021/07/28 05:14:53;;;;;;;11.20;8.80;;;;;;;23.89;56.86;97227.09;5004753;28;20053;-60
2021/07/28 05:17:20;;;;;;;18.65;10.13;;;;;;;24.20;57.29;97255.66;5003057;28;20582;-61
2021/07/28 05:19:47;;;;;;;18.70;10.80;;;;;;;24.17;57.60;97219.75;5002870;28;20088;-61
2021/07/28 05:22:14;;;;;;;17.02;10.43;;;;;;;24.35;57.84;97243.38;5001779;28;20523;-62
2021/07/28 05:24:41;;;;;;;22.20;13.50;;;;;;;24.45;57.24;97233.75;5002769;28;20081;-62
2021/07/28 05:27:08;;;;;;;13.82;10.95;;;;;;;24.50;57.15;97227.47;5002410;28;20433;-62
2021/07/28 05:29:35;;;;;;;15.93;11.68;;;;;;;24.72;57.45;97262.34;5003799;28;20054;-62
2021/07/28 05:32:01;;;;;;;15.50;10.85;;;;;;;24.70;56.85;97232.88;5002088;28;20045;-62
2021/07/28 05:34:28;;;;;;;13.95;9.95;;;;;;;25.07;55.99;97254.63;5002751;28;20061;-62
2021/07/28 05:36:57;;;;;;;17.58;10.30;;;;;;;24.35;57.28;97232.06;5002077;28;20137;-62
2021/07/28 05:39:25;;;;;;;11.60;10.25;;;;;;;24.96;55.15;97260.66;5004327;28;20053;-63
2021/07/28 05:41:51;;;;;;;13.88;10.00;;;;;;;25.07;53.65;97238.38;5002094;28;20489;-62
2021/07/28 05:44:18;;;;;;;12.98;10.07;;;;;;;24.83;53.96;97213.78;5003596;28;20136;-60
2021/07/28 05:46:45;;;;;;;11.27;10.18;;;;;;;25.14;53.61;97237.34;5003548;28;20517;-61
2021/07/28 05:49:11;;;;;;;10.55;9.40;;;;;;;25.43;52.52;97259.78;5002334;28;20140;-61
2021/07/28 05:51:38;;;;;;;10.77;8.93;;;;;;;25.67;52.02;97266.53;5002165;28;20064;-62
2021/07/28 05:54:05;;;;;;;12.57;9.30;;;;;;;25.68;52.31;97260.41;5002131;28;20049;-61
2021/07/28 05:56:32;;;;;;;13.15;9.73;;;;;;;25.29;52.30;97185.28;5002161;28;20065;-61
2021/07/28 05:58:58;;;;;;;13.90;10.18;;;;;;;25.91;51.58;97247.75;5003104;28;20062;-62
2021/07/28 06:01:25;;;;;;;11.93;9.13;;;;;;;26.25;51.04;97264.63;5003370;28;20053;-62
2021/07/28 06:03:52;;;;;;;15.77;10.02;;;;;;;26.41;51.08;97253.00;5002073;28;20050;-61
2021/07/28 06:06:19;;;;;;;15.32;11.20;;;;;;;26.10;50.38;97189.75;5002498;28;20120;-61
2021/07/28 06:08:46;;;;;;;11.60;10.35;;;;;;;26.68;50.04;97247.38;5001358;28;20600;-62
2021/07/28 06:11:13;;;;;;;10.70;9.60;;;;;;;26.90;49.68;97253.72;4984077;28;20141;-62
2021/07/28 06:13:39;;;;;;;11.50;9.45;;;;;;;26.97;49.46;97253.38;4982389;28;20053;-63
2021/07/28 06:16:06;;;;;;;14.52;9.30;;;;;;;27.10;49.20;97268.25;4982058;28;20046;-59
2021/07/28 06:18:33;;;;;;;13.68;9.38;;;;;;;25.63;48.47;96994.25;5001342;28;20053;-61
2021/07/28 06:21:01;;;;;;;13.38;9.60;;;;;;;27.18;49.04;97246.75;4989202;28;20056;-60
2021/07/28 06:23:28;;;;;;;13.57;9.32;;;;;;;26.46;49.88;97172.81;4985026;28;20050;-62
2021/07/28 06:25:54;;;;;;;14.38;9.70;;;;;;;27.25;49.33;97240.72;4989250;28;20435;-59
2021/07/28 06:28:21;;;;;;;11.73;9.35;;;;;;;27.40;49.48;97236.00;4983842;28;20054;-62
2021/07/28 06:30:52;;;;;;;16.23;9.45;;;;;;;27.61;48.05;97243.56;4993940;28;20608;-61
2021/07/28 06:33:20;;;;;;;13.43;9.70;;;;;;;27.62;48.45;97242.28;5003317;28;20058;-61
2021/07/28 06:35:51;;;;;;;13.90;9.45;;;;;;;27.96;46.68;97218.31;4987227;28;20055;-62
2021/07/28 06:38:19;;;;;;;17.17;9.75;;;;;;;27.97;45.30;97160.84;4981913;28;20054;-62
2021/07/28 06:40:46;;;;;;;15.70;9.48;;;;;;;28.62;44.79;97233.31;4983737;28;20063;-61
2021/07/28 06:43:13;;;;;;;12.75;9.65;;;;;;;28.19;45.47;97166.25;4988119;28;20621;-64
2021/07/28 06:45:40;;;;;;;18.95;10.02;;;;;;;28.73;44.42;97233.53;5002241;28;20583;-61
2021/07/28 06:48:07;;;;;;;14.27;10.10;;;;;;;29.08;43.55;97229.66;5001573;28;20042;-62
2021/07/28 06:50:34;;;;;;;20.08;12.27;;;;;;;29.26;43.26;97220.16;5002797;28;20050;-61
2021/07/28 06:53:01;;;;;;;26.20;12.85;;;;;;;28.58;44.84;97227.00;4996849;28;20446;-62
2021/07/28 06:55:28;;;;;;;11.27;9.80;;;;;;;28.57;43.37;97174.09;4987994;28;20050;-60
2021/07/28 06:57:55;;;;;;;11.73;9.40;;;;;;;29.03;44.04;97224.59;4985998;28;20064;-60
2021/07/28 07:00:22;;;;;;;15.25;9.32;;;;;;;29.40;42.80;97214.44;4987481;28;20054;-61
2021/07/28 07:02:48;;;;;;;11.10;9.52;;;;;;;29.59;41.99;97215.81;4995389;28;20038;-61
2021/07/28 07:05:15;;;;;;;13.82;9.27;;;;;;;29.70;41.97;97208.75;4998090;28;20058;-59
2021/07/28 07:07:42;;;;;;;8.85;7.90;;;;;;;30.03;39.57;97212.94;4996812;28;20157;-62
2021/07/28 07:10:09;;;;;;;10.98;8.65;;;;;;;29.99;40.01;97212.34;4995667;28;20038;-61
2021/07/28 07:12:37;;;;;;;9.18;8.00;;;;;;;30.02;39.43;97207.75;5001474;28;20154;-59
2021/07/28 07:15:06;;;;;;;11.20;8.35;;;;;;;30.26;39.28;97223.47;4994724;28;20046;-59
2021/07/28 07:17:32;;;;;;;10.20;8.68;;;;;;;30.03;39.01;97147.22;4986117;28;20056;-64
2021/07/28 07:19:59;;;;;;;14.63;8.65;;;;;;;29.79;38.78;97095.19;4992272;28;20051;-64
2021/07/28 07:22:26;;;;;;;9.90;8.50;;;;;;;30.60;38.90;97208.34;4994753;28;20054;-60
2021/07/28 07:24:53;;;;;;;11.32;9.02;;;;;;;30.72;39.02;97198.63;4990886;28;20434;-65
2021/07/28 07:27:19;;;;;;;17.38;8.75;;;;;;;30.95;39.22;97202.59;4988960;28;20050;-64
2021/07/28 07:29:48;;;;;;;15.02;9.60;;;;;;;31.27;38.47;97197.75;5004619;28;20058;-60
2021/07/28 07:32:22;;;;;;;18.20;9.50;;;;;;;31.44;38.16;97182.31;5005424;28;20431;-59
2021/07/28 07:34:51;;;;;;;11.52;8.48;;;;;;;31.61;37.35;97200.47;4997358;28;20058;-61
2021/07/28 07:37:18;;;;;;;13.10;9.23;;;;;;;31.13;37.51;97124.19;4986350;28;20046;-62
2021/07/28 07:39:44;;;;;;;26.23;10.45;;;;;;;31.70;37.68;97196.63;4986535;28;20069;-60
2021/07/28 07:42:11;;;;;;;18.98;10.32;;;;;;;31.85;37.61;97185.84;4986347;28;20084;-60
2021/07/28 07:44:38;;;;;;;14.68;8.70;;;;;;;32.04;37.36;97192.78;4985334;28;20070;-61
2021/07/28 07:47:04;;;;;;;15.25;9.75;;;;;;;32.03;37.41;97168.25;4986079;28;20065;-61
2021/07/28 07:49:31;;;;;;;12.18;9.75;;;;;;;32.14;37.08;97168.34;4986217;28;20062;-62
2021/07/28 07:51:58;;;;;;;19.58;9.18;;;;;;;32.46;36.69;97184.22;4984266;28;20375;-60
2021/07/28 07:54:25;;;;;;;13.65;9.20;;;;;;;32.37;35.54;97157.81;4985008;28;20061;-61
2021/07/28 07:56:52;;;;;;;13.98;9.10;;;;;;;32.48;36.29;97178.75;4987367;28;20050;-61
2021/07/28 07:59:20;;;;;;;11.55;8.80;;;;;;;32.26;35.78;97130.59;4985753;28;20068;-59
2021/07/28 08:01:47;;;;;;;11.43;9.38;;;;;;;32.15;35.65;97129.78;4987182;28;20248;-58
2021/07/28 08:04:14;;;;;;;10.25;8.40;;;;;;;32.51;36.18;97174.84;5011100;28;21217;-58
2021/07/28 08:06:40;;;;;;;13.35;10.05;;;;;;;32.27;36.53;97137.13;5007234;28;20382;-64
2021/07/28 08:09:07;;;;;;;14.50;10.68;;;;;;;32.14;35.84;97122.47;5003356;28;20288;-65
2021/07/28 08:11:34;;;;;;;13.38;11.15;;;;;;;32.22;36.54;97169.44;5002607;28;20049;-64
2021/07/28 08:14:00;;;;;;;19.45;11.25;;;;;;;32.48;36.24;97175.09;5003159;28;20516;-65
2021/07/28 08:16:27;;;;;;;14.70;8.77;;;;;;;32.57;36.30;97167.06;5001719;28;20065;-66
2021/07/28 08:18:54;;;;;;;12.00;8.57;;;;;;;32.66;36.03;97158.22;5001290;28;20096;-66
2021/07/28 08:21:21;;;;;;;13.57;9.20;;;;;;;32.86;35.34;97154.41;5003142;28;20057;-67
2021/07/28 08:23:48;;;;;;;15.07;9.95;;;;;;;32.84;35.39;97140.56;5005751;28;20054;-66
2021/07/28 08:26:18;;;;;;;16.90;9.18;;;;;;;32.78;34.62;97113.94;5005029;28;20085;-66
2021/07/28 08:28:45;;;;;;;17.02;10.63;;;;;;;33.14;34.54;97130.22;5004628;28;20076;-66
2021/07/28 08:31:12;;;;;;;11.20;8.35;;;;;;;33.09;33.42;97105.16;5003436;28;20485;-67
2021/07/28 08:33:39;;;;;;;11.18;8.23;;;;;;;33.50;33.29;97146.50;5004812;28;20050;-67
2021/07/28 08:36:05;;;;;;;9.82;8.57;;;;;;;32.65;33.74;97087.00;5003234;28;20454;-65
2021/07/28 08:38:32;;;;;;;14.52;9.65;;;;;;;33.23;34.20;97144.34;5005066;28;20049;-65
2021/07/28 08:41:01;;;;;;;10.38;8.85;;;;;;;33.62;33.59;97136.56;5004564;28;20077;-70
2021/07/28 08:43:31;;;;;;;17.00;8.88;;;;;;;33.21;33.59;97094.47;4994138;28;20058;-64
2021/07/28 08:45:59;;;;;;;14.68;8.63;;;;;;;32.95;34.04;97111.91;4999475;28;20513;-65
2021/07/28 08:48:29;;;;;;;11.43;8.32;;;;;;;33.52;34.27;97143.91;5003970;28;20144;-64
2021/07/28 08:50:58;;;;;;;12.13;8.63;;;;;;;33.67;34.00;97132.16;5011925;28;20173;-64
2021/07/28 08:53:28;;;;;;;11.50;8.85;;;;;;;34.01;33.33;97130.03;4988324;28;20141;-68
2021/07/28 08:55:57;;;;;;;11.18;8.68;;;;;;;33.83;32.97;97087.47;4995669;28;20544;-59
2021/07/28 08:58:25;;;;;;;10.65;8.85;;;;;;;33.67;33.54;97130.03;4993115;28;20046;-67
2021/07/28 09:00:54;;;;;;;13.57;8.85;;;;;;;33.85;33.47;97125.06;5004273;28;20058;-67
2021/07/28 09:03:21;;;;;;;22.45;10.18;;;;;;;33.98;32.93;97123.28;5003964;28;20454;-65
2021/07/28 09:05:55;;;;;;;21.52;10.95;;;;;;;34.42;33.31;97113.75;4995182;28;20435;-63
2021/07/28 09:08:33;;;;;;;20.33;9.20;;;;;;;34.85;31.83;97109.13;5002918;28;20062;-61
2021/07/28 09:11:05;;;;;;;12.85;10.15;;;;;;;34.90;31.72;97065.16;5002078;28;20050;-62
2021/07/28 09:13:38;;;;;;;16.90;9.70;;;;;;;35.15;30.56;97098.53;4996116;28;20154;-67
2021/07/28 09:16:14;;;;;;;12.85;8.95;;;;;;;35.34;30.73;97105.19;4986846;28;20061;-65
2021/07/28 09:18:49;;;;;;;14.93;9.00;;;;;;;35.64;29.51;97103.16;4984001;28;20988;-59
2021/07/28 09:21:19;;;;;;;16.85;9.52;;;;;;;35.46;30.24;97095.16;4990193;28;20041;-64
2021/07/28 09:23:48;;;;;;;16.25;11.55;;;;;;;35.71;30.20;97099.66;5000462;28;20427;-65
2021/07/28 09:26:45;;;;;;;21.58;12.68;;;;;;;36.04;29.36;97090.72;4999314;28;20058;-60
2021/07/28 09:29:16;;;;;;;22.23;11.63;;;;;;;36.27;28.87;97089.19;5001000;28;20053;-65
2021/07/28 09:31:53;;;;;;;17.65;10.55;;;;;;;36.36;28.59;97094.63;5003506;28;20058;-58
2021/07/28 09:34:23;;;;;;;13.80;9.30;;;;;;;36.49;27.93;97083.19;5002612;28;20131;-59
2021/07/28 09:37:13;;;;;;;23.17;13.35;;;;;;;36.14;28.52;97080.41;4995353;28;20141;-59
2021/07/28 09:39:45;;;;;;;15.82;8.43;;;;;;;36.38;27.90;97082.53;4985712;28;20058;-60
2021/07/28 09:42:14;;;;;;;14.45;9.40;;;;;;;36.08;27.00;97006.78;4995149;28;20050;-60
2021/07/28 09:44:44;;;;;;;15.35;10.68;;;;;;;36.66;28.04;97073.53;4985727;28;20518;-60
2021/07/28 09:47:24;;;;;;;18.83;12.38;;;;;;;36.24;27.36;97002.91;5018080;28;20049;-59
2021/07/28 09:49:56;;;;;;;20.88;12.30;;;;;;;36.43;27.75;97073.03;5022514;28;20053;-59
2021/07/28 09:52:33;;;;;;;19.30;8.98;;;;;;;36.55;27.70;97070.78;4987532;28;20048;-59
2021/07/28 09:55:29;;;;;;;19.25;9.93;;;;;;;36.81;27.65;97056.53;4989665;28;20155;-58
2021/07/28 09:57:58;;;;;;;15.15;9.63;;;;;;;36.32;27.96;97061.59;5001498;28;20057;-60
2021/07/28 10:00:27;;;;;;;20.02;10.48;;;;;;;36.44;27.43;97029.19;4998622;28;20436;-62
2021/07/28 10:03:00;;;;;;;15.60;9.73;;;;;;;36.88;27.32;97050.91;4983324;28;20046;-59
2021/07/28 10:05:36;;;;;;;17.42;11.02;;;;;;;35.69;26.80;96831.31;4982689;28;20145;-66
2021/07/28 10:08:07;;;;;;;19.13;10.15;;;;;;;37.41;26.81;97037.50;4983700;28;20097;-63
2021/07/28 10:10:37;;;;;;;15.35;9.57;;;;;;;37.54;26.76;97049.13;4982575;28;20046;-62
2021/07/28 10:13:04;;;;;;;13.25;9.75;;;;;;;36.91;26.92;97020.16;4987901;28;20092;-65
2021/07/28 10:15:32;;;;;;;22.23;11.85;;;;;;;37.02;26.61;97043.09;4983079;28;20521;-62
2021/07/28 10:18:00;;;;;;;22.92;10.38;;;;;;;37.47;26.73;97038.19;4983667;28;20050;-61
2021/07/28 10:20:27;;;;;;;18.05;9.70;;;;;;;37.43;25.35;96997.28;4983965;28;20077;-60
2021/07/28 10:22:57;;;;;;;19.40;9.48;;;;;;;37.74;25.75;97034.06;4984062;28;20246;-63
2021/07/28 10:25:24;;;;;;;14.63;8.95;;;;;;;37.97;25.25;97035.22;4983968;28;20056;-65
2021/07/28 10:27:52;;;;;;;14.02;9.35;;;;;;;37.47;25.57;96974.59;4984089;28;20065;-65
2021/07/28 10:30:20;;;;;;;20.25;11.75;;;;;;;38.18;24.99;97035.38;4987498;28;20046;-63
2021/07/28 10:32:47;;;;;;;19.42;9.35;;;;;;;38.36;25.58;97026.59;4987285;28;20085;-64
2021/07/28 10:35:25;;;;;;;14.85;9.70;;;;;;;37.80;25.65;97037.63;4987416;28;20050;-62
2021/07/28 10:37:57;;;;;;;18.70;9.73;;;;;;;37.90;25.74;97012.72;4987285;28;20066;-59
2021/07/28 10:40:24;;;;;;;15.88;9.30;;;;;;;38.37;24.88;97019.44;4987238;28;20124;-59
2021/07/28 10:42:53;;;;;;;13.95;9.35;;;;;;;38.32;25.30;97019.56;4987603;28;20054;-59
2021/07/28 10:45:21;;;;;;;12.10;9.98;;;;;;;37.04;25.92;97020.22;4987653;28;20053;-59
2021/07/28 10:47:50;;;;;;;18.13;9.52;;;;;;;37.08;26.15;97023.56;4985927;28;20058;-58
2021/07/28 10:50:26;;;;;;;19.15;9.27;;;;;;;36.53;26.88;97024.34;4985345;28;20054;-60
2021/07/28 10:52:54;;;;;;;18.70;10.32;;;;;;;37.15;26.04;97017.16;4987259;28;20145;-63
2021/07/28 10:55:24;;;;;;;17.63;9.57;;;;;;;36.95;25.78;97015.63;4989543;28;20058;-64
2021/07/28 10:58:07;;;;;;;20.35;10.40;;;;;;;36.69;25.91;97014.69;5005207;28;20064;-62
2021/07/28 11:00:37;;;;;;;16.73;10.17;;;;;;;37.23;25.11;97001.53;5006422;28;20511;-65
2021/07/28 11:03:07;;;;;;;19.70;9.18;;;;;;;37.08;23.82;97014.91;5005377;28;20054;-64
2021/07/28 11:05:35;;;;;;;20.08;9.63;;;;;;;37.32;23.95;96991.69;5005545;28;20286;-59
2021/07/28 11:08:05;;;;;;;18.83;8.05;;;;;;;37.71;23.44;97001.25;5006861;28;20061;-60
2021/07/28 11:10:33;;;;;;;17.77;9.32;;;;;;;37.91;24.40;96991.13;5006039;28;20056;-61
2021/07/28 11:13:14;;;;;;;27.20;10.20;;;;;;;38.28;23.67;96993.06;5006301;28;20595;-61
2021/07/28 11:15:50;;;;;;;19.65;9.45;;;;;;;38.42;22.23;97001.19;5006630;28;20136;-59
2021/07/28 11:18:17;;;;;;;13.70;9.05;;;;;;;38.69;22.38;96994.03;5006788;28;20512;-59
2021/07/28 11:20:44;;;;;;;21.90;9.90;;;;;;;38.93;22.55;96976.34;5004682;28;20053;-59
2021/07/28 11:23:34;;;;;;;16.05;7.70;;;;;;;39.28;21.55;96988.72;5006014;28;20556;-59
2021/07/28 11:26:02;;;;;;;20.15;9.35;;;;;;;38.88;22.31;96985.94;5003226;28;20061;-58
2021/07/28 11:28:29;;;;;;;18.67;8.68;;;;;;;39.34;22.45;96981.44;5006780;28;21009;-60
2021/07/28 11:30:57;;;;;;;20.63;9.43;;;;;;;39.43;22.35;96983.09;5006316;28;20460;-59
2021/07/28 11:33:25;;;;;;;23.30;9.88;;;;;;;39.14;21.48;96910.50;5006822;28;20046;-59